createdAt,value
2017-11-06T00:00:42.882Z,15.90
2017-11-06T00:03:09.506Z,14.73
2017-11-06T00:05:36.119Z,17.20
2017-11-06T00:08:02.743Z,20.98
2017-11-06T00:10:29.634Z,14.23
2017-11-06T00:12:56.242Z,15.68
2017-11-06T00:15:22.871Z,15.07
2017-11-06T00:17:49.472Z,14.63
2017-11-06T00:20:16.082Z,16.58
2017-11-06T00:22:42.709Z,15.70
2017-11-06T00:25:09.338Z,16.40
2017-11-06T00:27:35.974Z,15.82
2017-11-06T00:30:02.602Z,17.15
2017-11-06T00:32:29.210Z,15.88
2017-11-06T00:34:55.818Z,16.17
2017-11-06T00:37:22.450Z,16.58
2017-11-06T00:39:49.169Z,18.20
2017-11-06T00:42:15.779Z,19.83
2017-11-06T00:44:42.415Z,16.77
2017-11-06T00:47:09.017Z,20.52
2017-11-06T00:49:35.730Z,18.45
2017-11-06T00:52:02.364Z,17.95
2017-11-06T00:54:28.967Z,17.87
2017-11-06T00:56:55.574Z,16.37
2017-11-06T00:59:22.194Z,16.42
2017-11-06T01:01:48.806Z,20.35
2017-11-06T01:04:15.430Z,17.92
2017-11-06T01:06:42.039Z,22.80
2017-11-06T01:09:08.645Z,19.52
2017-11-06T01:11:35.276Z,23.05
2017-11-06T01:14:01.892Z,17.87
2017-11-06T01:16:28.498Z,21.75
2017-11-06T01:18:55.118Z,18.50
2017-11-06T01:21:21.833Z,18.30
2017-11-06T01:23:48.440Z,18.15
2017-11-06T01:26:15.111Z,18.60
2017-11-06T01:28:41.714Z,16.60
2017-11-06T01:31:08.327Z,18.62
2017-11-06T01:33:34.955Z,15.82
2017-11-06T01:36:01.667Z,17.40
2017-11-06T01:38:28.282Z,21.17
2017-11-06T01:40:54.947Z,20.35
2017-11-06T01:43:21.582Z,17.15
2017-11-06T01:45:48.185Z,16.95
2017-11-06T01:48:14.858Z,20.33
2017-11-06T01:50:41.465Z,20.70
2017-11-06T01:53:08.075Z,19.73
2017-11-06T01:55:34.706Z,20.52
2017-11-06T01:58:01.313Z,20.77
2017-11-06T02:00:27.918Z,18.67
2017-11-06T02:02:54.546Z,20.17
2017-11-06T02:05:21.155Z,20.48
2017-11-06T02:07:47.870Z,24.42
2017-11-06T02:10:14.494Z,24.92
2017-11-06T02:12:41.107Z,26.08
2017-11-06T02:15:07.713Z,18.90
2017-11-06T02:17:34.342Z,21.60
2017-11-06T02:20:00.966Z,20.25
2017-11-06T02:22:27.606Z,22.90
2017-11-06T02:24:54.238Z,22.67
2017-11-06T02:27:20.885Z,24.10
2017-11-06T02:29:47.490Z,21.00
2017-11-06T02:32:14.123Z,26.00
2017-11-06T02:34:40.731Z,20.70
2017-11-06T02:37:07.437Z,20.65
2017-11-06T02:39:34.069Z,28.05
2017-11-06T02:42:00.713Z,22.27
2017-11-06T02:44:27.321Z,22.20
2017-11-06T02:46:53.950Z,22.27
2017-11-06T02:49:20.559Z,20.37
2017-11-06T02:51:47.177Z,21.70
2017-11-06T02:54:13.797Z,24.67
2017-11-06T02:56:40.414Z,19.58
2017-11-06T02:59:07.042Z,24.33
2017-11-06T03:01:33.727Z,28.15
2017-11-06T03:04:00.347Z,21.12
2017-11-06T03:06:27.165Z,21.02
2017-11-06T03:08:53.845Z,26.37
2017-11-06T03:11:20.466Z,27.60
2017-11-06T03:13:47.173Z,21.77
2017-11-06T03:16:13.865Z,23.58
2017-11-06T03:18:40.479Z,20.67
2017-11-06T03:21:07.105Z,23.35
2017-11-06T03:23:33.713Z,24.33
2017-11-06T03:26:00.321Z,22.30
2017-11-06T03:28:27.109Z,23.30
2017-11-06T03:30:53.774Z,23.67
2017-11-06T03:33:20.391Z,21.73
2017-11-06T03:35:47.668Z,20.12
2017-11-06T03:38:14.317Z,28.98
2017-11-06T03:40:40.941Z,20.85
2017-11-06T03:43:07.565Z,19.48
2017-11-06T03:45:34.165Z,21.50
2017-11-06T03:48:00.836Z,21.70
2017-11-06T03:50:27.457Z,20.20
2017-11-06T03:52:54.068Z,22.42
2017-11-06T03:55:20.696Z,21.55
2017-11-06T03:57:47.312Z,20.40
2017-11-06T04:00:13.914Z,25.02
2017-11-06T04:02:40.530Z,21.17
2017-11-06T04:05:07.134Z,20.45
2017-11-06T04:07:33.797Z,20.48
2017-11-06T04:10:00.410Z,18.60
2017-11-06T04:12:27.013Z,18.57
2017-11-06T04:14:53.637Z,19.23
2017-11-06T04:17:20.245Z,26.62
2017-11-06T04:19:46.854Z,17.37
2017-11-06T04:22:13.476Z,21.27
2017-11-06T04:24:40.081Z,17.58
2017-11-06T04:27:06.713Z,18.17
2017-11-06T04:29:33.347Z,16.70
2017-11-06T04:31:59.993Z,17.92
2017-11-06T04:34:26.606Z,16.90
2017-11-06T04:36:53.237Z,22.37
2017-11-06T04:39:19.905Z,16.80
2017-11-06T04:41:46.531Z,18.95
2017-11-06T04:44:13.150Z,20.77
2017-11-06T04:46:39.829Z,19.25
2017-11-06T04:49:06.442Z,15.98
2017-11-06T04:51:33.064Z,16.90
2017-11-06T04:53:59.683Z,22.15
2017-11-06T04:56:26.297Z,17.17
2017-11-06T04:58:52.906Z,16.08
2017-11-06T05:01:19.555Z,17.15
2017-11-06T05:03:46.182Z,18.20
2017-11-06T05:06:12.794Z,14.27
2017-11-06T05:08:39.402Z,15.02
2017-11-06T05:11:06.022Z,14.25
2017-11-06T05:13:32.634Z,15.65
2017-11-06T05:15:59.289Z,17.08
2017-11-06T05:18:26.029Z,14.80
2017-11-06T05:20:52.680Z,18.17
2017-11-06T05:23:19.282Z,14.20
2017-11-06T05:25:45.952Z,18.15
2017-11-06T05:28:12.543Z,19.00
2017-11-06T05:30:39.158Z,15.10
2017-11-06T05:33:05.782Z,16.77
2017-11-06T05:35:32.385Z,15.48
2017-11-06T05:37:59.037Z,15.63
2017-11-06T05:40:25.670Z,16.62
2017-11-06T05:42:52.278Z,14.70
2017-11-06T05:45:18.881Z,19.00
2017-11-06T05:47:45.535Z,14.38
2017-11-06T05:50:12.138Z,19.90
2017-11-06T05:52:38.755Z,16.75
2017-11-06T05:55:05.387Z,16.27
2017-11-06T05:57:32.002Z,16.10
2017-11-06T05:59:58.610Z,20.30
2017-11-06T06:02:25.234Z,15.85
2017-11-06T06:04:51.844Z,16.00
2017-11-06T06:07:18.450Z,16.52
2017-11-06T06:09:45.078Z,13.57
2017-11-06T06:12:11.690Z,16.85
2017-11-06T06:14:39.237Z,15.43
2017-11-06T06:17:05.870Z,14.00
2017-11-06T06:19:32.474Z,17.25
2017-11-06T06:21:59.082Z,15.25
2017-11-06T06:24:25.726Z,15.70
2017-11-06T06:27:07.232Z,13.73
2017-11-06T06:29:34.649Z,13.40
2017-11-06T06:32:01.254Z,16.73
2017-11-06T06:34:27.862Z,22.52
2017-11-06T06:36:54.502Z,24.05
2017-11-06T06:39:21.105Z,24.50
2017-11-06T06:41:47.715Z,34.60
2017-11-06T06:44:14.386Z,18.33
2017-11-06T06:46:40.999Z,25.12
2017-11-06T06:49:07.606Z,21.75
2017-11-06T06:51:34.217Z,15.35
2017-11-06T06:54:00.834Z,15.68
2017-11-06T06:56:27.465Z,18.25
2017-11-06T06:58:54.119Z,16.80
2017-11-06T07:01:20.730Z,16.50
2017-11-06T07:03:47.358Z,13.15
2017-11-06T07:06:14.077Z,19.12
2017-11-06T07:08:40.775Z,13.60
2017-11-06T07:11:07.405Z,13.25
2017-11-06T07:13:34.017Z,13.00
2017-11-06T07:16:00.691Z,14.02
2017-11-06T07:18:27.376Z,14.10
2017-11-06T07:20:53.974Z,16.85
2017-11-06T07:23:20.609Z,13.15
2017-11-06T07:25:47.233Z,15.25
2017-11-06T07:28:13.846Z,12.37
2017-11-06T07:30:40.526Z,18.27
2017-11-06T07:33:07.155Z,12.60
2017-11-06T07:35:33.765Z,15.65
2017-11-06T07:38:00.374Z,13.73
2017-11-06T07:40:26.998Z,18.00
2017-11-06T07:42:53.618Z,12.95
2017-11-06T07:45:20.225Z,12.18
2017-11-06T07:47:46.857Z,17.42
2017-11-06T07:50:13.471Z,13.07
2017-11-06T07:52:40.138Z,15.68
2017-11-06T07:55:06.746Z,14.15
2017-11-06T07:57:33.357Z,11.85
2017-11-06T07:59:59.983Z,16.42
2017-11-06T08:02:26.594Z,14.18
2017-11-06T08:04:53.202Z,12.45
2017-11-06T08:07:19.825Z,15.75
2017-11-06T08:09:46.488Z,12.52
2017-11-06T08:12:13.127Z,13.25
2017-11-06T08:14:40.030Z,16.23
2017-11-06T08:17:06.642Z,17.05
2017-11-06T08:19:33.271Z,11.65
2017-11-06T08:21:59.878Z,12.30
2017-11-06T08:24:26.482Z,14.18
2017-11-06T08:26:53.105Z,13.25
2017-11-06T08:29:19.710Z,15.07
2017-11-06T08:31:46.334Z,15.88
2017-11-06T08:34:12.938Z,13.68
2017-11-06T08:36:39.546Z,12.10
2017-11-06T08:39:06.185Z,13.45
2017-11-06T08:41:32.898Z,11.55
2017-11-06T08:43:59.514Z,10.95
2017-11-06T08:46:26.125Z,14.27
2017-11-06T08:48:52.773Z,12.45
2017-11-06T08:51:19.403Z,12.35
2017-11-06T08:53:46.011Z,14.75
2017-11-06T08:56:12.631Z,12.52
2017-11-06T08:58:39.330Z,14.48
2017-11-06T09:01:06.013Z,12.65
2017-11-06T09:03:32.617Z,14.32
2017-11-06T09:05:59.350Z,16.95
2017-11-06T09:08:25.975Z,14.70
2017-11-06T09:10:52.586Z,12.65
2017-11-06T09:13:19.222Z,11.80
2017-11-06T09:15:45.842Z,13.73
2017-11-06T09:18:12.442Z,11.98
2017-11-06T09:20:39.065Z,14.73
2017-11-06T09:23:05.682Z,13.52
2017-11-06T09:25:32.367Z,12.65
2017-11-06T09:27:59.246Z,13.98
2017-11-06T09:30:25.854Z,17.27
2017-11-06T09:32:52.477Z,15.23
2017-11-06T09:35:19.102Z,13.65
2017-11-06T09:37:45.761Z,14.07
2017-11-06T09:40:12.393Z,15.13
2017-11-06T09:42:39.022Z,13.18
2017-11-06T09:45:05.642Z,14.57
2017-11-06T09:47:32.246Z,10.93
2017-11-06T09:49:58.874Z,11.75
2017-11-06T09:52:25.535Z,11.65
2017-11-06T09:54:52.236Z,11.90
2017-11-06T09:57:18.863Z,12.05
2017-11-06T09:59:45.470Z,10.43
2017-11-06T10:02:12.073Z,11.82
2017-11-06T10:04:38.791Z,9.65
2017-11-06T10:07:05.427Z,11.65
2017-11-06T10:09:32.065Z,10.35
2017-11-06T10:11:58.678Z,10.45
2017-11-06T10:14:25.306Z,11.18
2017-11-06T10:16:51.923Z,10.43
2017-11-06T10:19:18.528Z,10.13
2017-11-06T10:21:45.123Z,9.75
2017-11-06T10:24:11.739Z,9.52
2017-11-06T10:26:38.346Z,9.48
2017-11-06T10:29:04.962Z,14.07
2017-11-06T10:31:31.631Z,11.77
2017-11-06T10:33:58.299Z,9.85
2017-11-06T10:36:24.893Z,8.32
2017-11-06T10:38:51.521Z,11.35
2017-11-06T10:41:18.122Z,9.27
2017-11-06T10:43:44.734Z,10.43
2017-11-06T10:46:11.363Z,8.80
2017-11-06T10:48:37.961Z,8.63
2017-11-06T10:51:04.565Z,10.20
2017-11-06T10:53:31.185Z,7.80
2017-11-06T10:55:57.785Z,8.38
2017-11-06T10:58:24.393Z,10.38
2017-11-06T11:00:51.022Z,10.60
2017-11-06T11:03:17.622Z,24.05
2017-11-06T11:05:44.238Z,12.40
2017-11-06T11:08:10.892Z,8.40
2017-11-06T11:10:37.530Z,8.07
2017-11-06T11:13:04.170Z,12.10
2017-11-06T11:15:30.789Z,14.20
2017-11-06T11:17:57.393Z,11.80
2017-11-06T11:20:24.000Z,19.25
2017-11-06T11:22:50.622Z,16.77
2017-11-06T11:25:17.230Z,16.17
2017-11-06T11:27:43.843Z,21.25
2017-11-06T11:30:10.482Z,38.40
2017-11-06T11:32:37.089Z,8.75
2017-11-06T11:35:03.702Z,16.25
2017-11-06T11:37:30.322Z,9.00
2017-11-06T11:39:56.917Z,9.30
2017-11-06T11:42:23.522Z,7.53
2017-11-06T11:44:50.789Z,6.97
2017-11-06T11:47:17.402Z,14.32
2017-11-06T11:49:44.004Z,9.60
2017-11-06T11:52:10.697Z,7.65
2017-11-06T11:54:37.306Z,9.30
2017-11-06T11:57:03.906Z,7.78
2017-11-06T11:59:30.526Z,7.85
2017-11-06T12:01:57.134Z,6.85
2017-11-06T12:04:23.797Z,6.32
2017-11-06T12:06:51.196Z,6.85
2017-11-06T12:09:17.843Z,8.43
2017-11-06T12:11:44.446Z,11.60
2017-11-06T12:14:11.216Z,11.20
2017-11-06T12:16:38.135Z,5.90
2017-11-06T12:19:04.850Z,6.78
2017-11-06T12:21:31.708Z,10.82
2017-11-06T12:23:58.694Z,5.97
2017-11-06T12:26:25.682Z,6.35
2017-11-06T12:28:53.059Z,5.95
2017-11-06T12:31:20.385Z,8.52
2017-11-06T12:33:49.508Z,8.30
2017-11-06T12:36:16.496Z,7.62
2017-11-06T12:38:43.193Z,6.55
2017-11-06T12:41:09.810Z,6.60
2017-11-06T12:43:37.945Z,6.82
2017-11-06T12:46:05.102Z,8.55
2017-11-06T12:48:32.150Z,11.32
2017-11-06T12:50:59.506Z,7.53
2017-11-06T12:53:27.686Z,6.05
2017-11-06T12:55:56.265Z,11.35
2017-11-06T12:58:23.920Z,6.25
2017-11-06T13:00:50.670Z,6.75
2017-11-06T13:03:17.322Z,6.70
2017-11-06T13:05:43.960Z,7.15
2017-11-06T13:08:10.643Z,9.15
2017-11-06T13:10:37.281Z,7.97
2017-11-06T13:13:03.885Z,8.18
2017-11-06T13:15:30.510Z,13.40
2017-11-06T13:17:57.105Z,7.93
2017-11-06T13:20:23.705Z,9.65
2017-11-06T13:22:50.377Z,17.67
2017-11-06T13:25:16.978Z,6.22
2017-11-06T13:27:43.596Z,8.63
2017-11-06T13:30:10.196Z,11.35
2017-11-06T13:32:36.803Z,10.25
2017-11-06T13:35:03.429Z,9.13
2017-11-06T13:37:30.031Z,9.70
2017-11-06T13:39:56.634Z,9.48
2017-11-06T13:42:23.250Z,6.20
2017-11-06T13:44:49.873Z,6.95
2017-11-06T13:47:16.563Z,5.80
2017-11-06T13:49:43.186Z,8.70
2017-11-06T13:52:09.855Z,6.55
2017-11-06T13:54:36.451Z,9.98
2017-11-06T13:57:03.079Z,7.57
2017-11-06T13:59:29.686Z,6.07
2017-11-06T14:01:56.287Z,6.12
2017-11-06T14:04:22.900Z,5.57
2017-11-06T14:06:49.510Z,7.70
2017-11-06T14:09:16.110Z,6.35
2017-11-06T14:11:42.752Z,6.60
2017-11-06T14:14:09.345Z,6.35
2017-11-06T14:16:35.967Z,7.72
2017-11-06T14:19:02.565Z,12.90
2017-11-06T14:21:29.166Z,5.30
2017-11-06T14:23:55.783Z,6.85
2017-11-06T14:26:22.390Z,6.68
2017-11-06T14:28:48.989Z,7.18
2017-11-06T14:31:15.653Z,6.90
2017-11-06T14:33:42.258Z,6.32
2017-11-06T14:36:08.854Z,6.45
2017-11-06T14:38:35.571Z,6.07
2017-11-06T14:41:02.211Z,10.70
2017-11-06T14:43:28.845Z,5.22
2017-11-06T14:45:55.453Z,7.05
2017-11-06T14:48:22.778Z,5.80
2017-11-06T14:50:49.405Z,8.93
2017-11-06T14:53:16.033Z,5.35
2017-11-06T14:55:42.638Z,6.15
2017-11-06T14:58:09.253Z,6.43
2017-11-06T15:00:35.857Z,7.35
2017-11-06T15:03:02.458Z,5.75
2017-11-06T15:05:29.159Z,6.10
2017-11-06T15:07:55.771Z,7.07
2017-11-06T15:10:23.272Z,6.55
2017-11-06T15:12:50.511Z,6.75
2017-11-06T15:15:18.073Z,8.73
2017-11-06T15:17:45.119Z,7.18
2017-11-06T15:20:12.375Z,8.00
2017-11-06T15:22:41.028Z,7.62
2017-11-06T15:25:08.427Z,9.05
2017-11-06T15:27:35.904Z,7.72
2017-11-06T15:30:03.442Z,6.85
2017-11-06T15:32:30.792Z,7.50
2017-11-06T15:34:57.839Z,7.65
2017-11-06T15:37:24.784Z,9.05
2017-11-06T15:39:51.413Z,6.93
2017-11-06T15:42:18.019Z,9.18
2017-11-06T15:44:44.671Z,15.38
2017-11-06T15:47:11.268Z,7.55
2017-11-06T15:49:37.878Z,10.13
2017-11-06T15:52:04.497Z,6.65
2017-11-06T15:54:31.093Z,7.55
2017-11-06T15:56:57.688Z,7.57
2017-11-06T15:59:24.306Z,7.87
2017-11-06T16:01:50.972Z,8.00
2017-11-06T16:04:17.690Z,7.97
2017-11-06T16:06:44.292Z,8.95
2017-11-06T16:09:10.892Z,7.72
2017-11-06T16:11:37.577Z,9.52
2017-11-06T16:14:04.221Z,8.52
2017-11-06T16:16:30.831Z,7.28
2017-11-06T16:18:57.454Z,10.63
2017-11-06T16:21:24.081Z,11.32
2017-11-06T16:23:50.710Z,9.13
2017-11-06T16:26:17.309Z,8.45
2017-11-06T16:28:43.918Z,10.15
2017-11-06T16:31:10.538Z,10.85
2017-11-06T16:33:37.146Z,7.05
2017-11-06T16:36:03.778Z,8.13
2017-11-06T16:38:30.515Z,8.63
2017-11-06T16:40:57.150Z,8.10
2017-11-06T16:43:23.794Z,9.15
2017-11-06T16:45:50.424Z,13.73
2017-11-06T16:48:17.079Z,12.80
2017-11-06T16:50:43.707Z,8.65
2017-11-06T16:53:10.346Z,9.43
2017-11-06T16:55:36.951Z,21.55
2017-11-06T16:58:03.557Z,8.40
2017-11-06T17:00:30.272Z,8.77
2017-11-06T17:02:56.875Z,8.20
2017-11-06T17:05:23.479Z,15.00
2017-11-06T17:07:50.093Z,9.45
2017-11-06T17:10:16.723Z,12.68
2017-11-06T17:12:43.366Z,10.98
2017-11-06T17:15:10.102Z,11.57
2017-11-06T17:17:36.709Z,12.00
2017-11-06T17:20:03.306Z,11.75
2017-11-06T17:22:29.935Z,10.93
2017-11-06T17:24:56.537Z,8.77
2017-11-06T17:27:23.153Z,8.60
2017-11-06T17:29:49.832Z,8.48
2017-11-06T17:32:16.439Z,8.50
2017-11-06T17:34:43.043Z,7.87
2017-11-06T17:37:09.668Z,13.20
2017-11-06T17:39:36.270Z,9.82
2017-11-06T17:42:02.891Z,11.52
2017-11-06T17:44:29.506Z,8.05
2017-11-06T17:46:56.106Z,15.98
2017-11-06T17:49:22.714Z,10.52
2017-11-06T17:51:49.334Z,9.85
2017-11-06T17:54:16.017Z,15.50
2017-11-06T17:56:42.617Z,8.02
2017-11-06T17:59:09.231Z,9.80
2017-11-06T18:01:35.876Z,9.00
2017-11-06T18:04:02.470Z,7.70
2017-11-06T18:06:29.086Z,9.57
2017-11-06T18:08:55.686Z,8.65
2017-11-06T18:11:22.284Z,7.53
2017-11-06T18:13:48.908Z,8.20
2017-11-06T18:16:15.610Z,7.22
2017-11-06T18:18:42.305Z,9.27
2017-11-06T18:21:08.932Z,10.82
2017-11-06T18:23:35.537Z,8.38
2017-11-06T18:26:02.230Z,8.75
2017-11-06T18:28:28.866Z,7.70
2017-11-06T18:30:55.500Z,9.43
2017-11-06T18:33:22.140Z,9.60
2017-11-06T18:35:48.754Z,8.50
2017-11-06T18:38:15.355Z,9.55
2017-11-06T18:40:41.968Z,6.53
2017-11-06T18:43:08.574Z,7.30
2017-11-06T18:45:35.280Z,8.60
2017-11-06T18:48:01.893Z,6.80
2017-11-06T18:50:28.502Z,9.23
2017-11-06T18:52:55.154Z,10.25
2017-11-06T18:55:21.779Z,8.60
2017-11-06T18:57:48.375Z,7.62
2017-11-06T19:00:14.976Z,10.57
2017-11-06T19:02:41.652Z,7.05
2017-11-06T19:05:08.249Z,8.95
2017-11-06T19:07:34.851Z,9.57
2017-11-06T19:10:01.463Z,8.13
2017-11-06T19:12:28.117Z,8.80
2017-11-06T19:14:54.738Z,8.55
2017-11-06T19:17:21.357Z,8.90
2017-11-06T19:19:47.966Z,10.15
2017-11-06T19:22:14.565Z,9.88
2017-11-06T19:24:41.195Z,14.85
2017-11-06T19:27:07.793Z,7.35
2017-11-06T19:29:34.386Z,8.27
2017-11-06T19:32:01.014Z,7.70
2017-11-06T19:34:27.615Z,12.82
2017-11-06T19:36:54.214Z,8.88
2017-11-06T19:39:20.878Z,9.02
2017-11-06T19:41:47.530Z,9.27
2017-11-06T19:44:14.209Z,9.90
2017-11-06T19:46:40.830Z,12.35
2017-11-06T19:49:07.444Z,14.93
2017-11-06T19:51:34.062Z,10.43
2017-11-06T19:54:00.686Z,11.52
2017-11-06T19:56:27.299Z,19.05
2017-11-06T19:58:53.906Z,10.93
2017-11-06T20:01:20.546Z,13.77
2017-11-06T20:03:47.154Z,12.70
2017-11-06T20:06:13.773Z,12.37
2017-11-06T20:08:40.406Z,13.57
2017-11-06T20:11:07.011Z,12.25
2017-11-06T20:13:33.615Z,11.65
2017-11-06T20:16:00.241Z,11.20
2017-11-06T20:18:26.844Z,11.32
2017-11-06T20:20:53.464Z,11.88
2017-11-06T20:23:20.183Z,11.27
2017-11-06T20:25:46.791Z,10.30
2017-11-06T20:28:13.462Z,10.85
2017-11-06T20:30:40.094Z,10.43
2017-11-06T20:33:06.703Z,11.20
2017-11-06T20:35:33.306Z,10.55
2017-11-06T20:37:59.934Z,12.85
2017-11-06T20:40:26.554Z,11.95
2017-11-06T20:42:53.158Z,12.18
2017-11-06T20:45:19.800Z,11.35
2017-11-06T20:47:46.445Z,11.10
2017-11-06T20:50:13.074Z,11.88
2017-11-06T20:52:39.684Z,12.07
2017-11-06T20:55:06.294Z,11.45
2017-11-06T20:57:32.922Z,11.75
2017-11-06T20:59:59.530Z,12.02
2017-11-06T21:02:26.144Z,14.60
2017-11-06T21:04:52.786Z,11.50
2017-11-06T21:07:19.390Z,10.65
2017-11-06T21:09:46.002Z,23.17
2017-11-06T21:12:12.703Z,12.35
2017-11-06T21:14:39.305Z,11.70
2017-11-06T21:17:05.992Z,16.48
2017-11-06T21:19:32.722Z,11.88
2017-11-06T21:21:59.318Z,10.55
2017-11-06T21:24:25.946Z,11.23
2017-11-06T21:26:52.559Z,12.40
2017-11-06T21:29:24.962Z,11.43
2017-11-06T21:31:51.567Z,16.00
2017-11-06T21:34:18.252Z,11.25
2017-11-06T21:36:44.885Z,15.77
2017-11-06T21:39:11.502Z,12.75
2017-11-06T21:41:38.131Z,12.68
2017-11-06T21:44:04.739Z,12.52
2017-11-06T21:46:31.444Z,12.63
2017-11-06T21:48:58.073Z,11.73
2017-11-06T21:51:24.686Z,15.95
2017-11-06T21:53:51.327Z,15.60
2017-11-06T21:56:17.938Z,18.37
2017-11-06T21:58:44.558Z,15.00
2017-11-06T22:01:11.178Z,14.50
2017-11-06T22:03:37.786Z,17.30
2017-11-06T22:06:04.394Z,12.95
2017-11-06T22:08:31.089Z,12.95
2017-11-06T22:10:57.702Z,12.40
2017-11-06T22:13:24.318Z,14.00
2017-11-06T22:15:50.940Z,15.70
2017-11-06T22:18:17.549Z,12.52
2017-11-06T22:20:44.162Z,11.55
2017-11-06T22:23:10.804Z,12.45
2017-11-06T22:25:37.409Z,13.68
2017-11-06T22:28:04.101Z,11.38
2017-11-06T22:30:31.086Z,14.70
2017-11-06T22:32:57.790Z,12.73
2017-11-06T22:35:24.433Z,12.43
2017-11-06T22:37:51.054Z,11.57
2017-11-06T22:40:17.662Z,21.20
2017-11-06T22:42:44.286Z,15.02
2017-11-06T22:45:10.902Z,17.95
2017-11-06T22:47:37.511Z,14.43
2017-11-06T22:50:04.141Z,14.38
2017-11-06T22:52:30.758Z,12.68
2017-11-06T22:54:57.366Z,14.18
2017-11-06T22:57:23.991Z,18.67
2017-11-06T22:59:50.604Z,12.75
2017-11-06T23:02:17.298Z,12.90
2017-11-06T23:04:44.778Z,16.08
2017-11-06T23:07:11.391Z,15.30
2017-11-06T23:09:38.017Z,13.05
2017-11-06T23:12:04.633Z,12.82
2017-11-06T23:14:31.271Z,14.68
2017-11-06T23:16:57.894Z,17.33
2017-11-06T23:19:24.505Z,15.60
2017-11-06T23:21:51.230Z,16.60
2017-11-06T23:24:17.930Z,15.15
2017-11-06T23:26:44.539Z,13.52
2017-11-06T23:29:11.162Z,14.65
2017-11-06T23:31:37.765Z,15.18
2017-11-06T23:34:04.394Z,11.88
2017-11-06T23:36:31.005Z,16.10
2017-11-06T23:38:57.623Z,14.68
2017-11-06T23:41:24.262Z,14.30
2017-11-06T23:43:50.870Z,16.05
2017-11-06T23:46:17.483Z,14.48
2017-11-06T23:48:44.098Z,15.00
2017-11-06T23:51:10.705Z,13.20
2017-11-06T23:53:37.334Z,15.98
2017-11-06T23:56:03.942Z,15.45
2017-11-06T23:58:30.556Z,20.85
